createdAt,value
2018-08-28T00:02:11.984Z,99920.00
2018-08-28T00:05:16.834Z,99922.25
2018-08-28T00:08:21.714Z,99927.36
2018-08-28T00:11:26.555Z,99927.27
2018-08-28T00:14:31.393Z,99924.67
2018-08-28T00:17:36.495Z,99929.01
2018-08-28T00:20:41.253Z,99928.96
2018-08-28T00:23:46.152Z,99932.01
2018-08-28T00:26:50.939Z,99930.66
2018-08-28T00:29:55.849Z,99933.26
2018-08-28T00:33:00.678Z,99938.48
2018-08-28T00:36:05.446Z,99939.91
2018-08-28T00:39:10.400Z,99951.48
2018-08-28T00:42:15.235Z,99953.61
2018-08-28T00:45:20.063Z,99969.39
2018-08-28T00:48:24.802Z,99972.23
2018-08-28T00:51:29.627Z,99979.08
2018-08-28T00:54:34.388Z,99969.54
2018-08-28T00:57:39.180Z,99979.84
2018-08-28T01:00:44.011Z,99981.72
2018-08-28T01:03:48.889Z,99993.59
2018-08-28T01:06:53.819Z,99994.86
2018-08-28T01:09:58.542Z,99995.75
2018-08-28T01:13:03.366Z,99990.84
2018-08-28T01:16:08.307Z,99992.51
2018-08-28T01:19:13.102Z,99996.82
2018-08-28T01:22:18.008Z,99999.52
2018-08-28T01:25:23.058Z,100004.62
2018-08-28T01:28:27.931Z,100001.16
2018-08-28T01:31:32.718Z,99996.91
2018-08-28T01:34:37.515Z,100002.93
2018-08-28T01:37:42.381Z,99999.27
2018-08-28T01:40:47.134Z,100002.38
2018-08-28T01:43:52.025Z,100006.72
2018-08-28T01:46:56.907Z,100004.94
2018-08-28T01:50:01.799Z,100005.23
2018-08-28T01:53:07.052Z,100003.66
2018-08-28T01:56:11.860Z,100008.30
2018-08-28T01:59:16.661Z,100002.59
2018-08-28T02:02:21.485Z,100001.91
2018-08-28T02:05:26.336Z,100005.44
2018-08-28T02:08:31.069Z,100010.94
2018-08-28T02:11:36.201Z,100011.86
2018-08-28T02:14:40.922Z,100011.58
2018-08-28T02:17:45.846Z,100009.26
2018-08-28T02:20:50.595Z,100009.19
2018-08-28T02:23:55.472Z,100009.80
2018-08-28T02:27:00.356Z,100014.56
2018-08-28T02:30:05.151Z,100015.52
2018-08-28T02:33:10.083Z,100020.49
2018-08-28T02:36:14.891Z,100013.67
2018-08-28T02:39:19.600Z,100025.41
2018-08-28T02:42:24.566Z,100020.37
2018-08-28T02:45:29.383Z,100027.27
2018-08-28T02:48:34.259Z,100021.33
2018-08-28T02:51:39.217Z,100021.54
2018-08-28T02:54:44.109Z,100027.56
2018-08-28T02:57:49.148Z,100020.02
2018-08-28T03:00:53.979Z,100023.95
2018-08-28T03:03:58.781Z,100022.52
2018-08-28T03:07:03.583Z,100026.73
2018-08-28T03:10:17.219Z,100029.56
2018-08-28T03:13:22.192Z,100031.36
2018-08-28T03:16:27.003Z,100026.67
2018-08-28T03:19:31.776Z,100034.94
2018-08-28T03:22:36.467Z,100030.38
2018-08-28T03:25:41.260Z,100041.05
2018-08-28T03:28:46.096Z,100044.45
2018-08-28T03:31:50.973Z,100052.08
2018-08-28T03:34:55.809Z,100047.66
2018-08-28T03:38:00.632Z,100055.38
2018-08-28T03:41:05.668Z,100055.56
2018-08-28T03:44:10.536Z,100062.95
2018-08-28T03:47:15.365Z,100057.31
2018-08-28T03:50:20.497Z,100059.23
2018-08-28T03:53:25.281Z,100069.61
2018-08-28T03:56:30.166Z,100068.60
2018-08-28T03:59:34.936Z,100074.15
2018-08-28T04:02:39.788Z,100076.70
2018-08-28T04:05:44.606Z,100081.48
2018-08-28T04:08:49.435Z,100087.34
2018-08-28T04:11:54.163Z,100088.48
2018-08-28T04:14:58.967Z,100087.47
2018-08-28T04:18:03.807Z,100085.92
2018-08-28T04:21:08.654Z,100090.69
2018-08-28T04:24:13.412Z,100091.28
2018-08-28T04:27:18.250Z,100101.38
2018-08-28T04:30:23.148Z,100101.05
2018-08-28T04:33:28.029Z,100108.75
2018-08-28T04:36:33.040Z,100107.51
2018-08-28T04:39:37.876Z,100106.45
2018-08-28T04:42:42.723Z,100107.80
2018-08-28T04:45:47.561Z,100115.17
2018-08-28T04:48:52.484Z,100116.84
2018-08-28T04:51:57.420Z,100117.05
2018-08-28T04:55:02.351Z,100113.30
2018-08-28T04:58:07.188Z,100119.63
2018-08-28T05:01:11.950Z,100121.37
2018-08-28T05:04:16.731Z,100130.45
2018-08-28T05:07:21.539Z,100130.95
2018-08-28T05:10:26.359Z,100132.16
2018-08-28T05:13:31.259Z,100130.38
2018-08-28T05:16:36.097Z,100141.46
2018-08-28T05:19:40.927Z,100146.42
2018-08-28T05:22:46.041Z,100141.00
2018-08-28T05:25:50.858Z,100135.80
2018-08-28T05:28:55.740Z,100137.78
2018-08-28T05:32:00.603Z,100144.25
2018-08-28T05:35:06.100Z,100142.52
2018-08-28T05:38:11.025Z,100143.13
2018-08-28T05:41:15.771Z,100150.76
2018-08-28T05:44:20.601Z,100152.26
2018-08-28T05:47:25.422Z,100147.59
2018-08-28T05:50:30.279Z,100145.44
2018-08-28T05:53:35.016Z,100149.00
2018-08-28T05:56:39.786Z,100152.12
2018-08-28T05:59:44.540Z,100152.27
2018-08-28T06:02:49.449Z,100148.47
2018-08-28T06:05:54.201Z,100151.31
2018-08-28T06:08:59.200Z,100159.86
2018-08-28T06:12:04.134Z,100155.80
2018-08-28T06:15:09.123Z,100155.23
2018-08-28T06:18:13.987Z,100160.07
2018-08-28T06:21:18.817Z,100160.84
2018-08-28T06:24:23.535Z,100163.87
2018-08-28T06:27:28.347Z,100174.17
2018-08-28T06:30:33.134Z,100169.22
2018-08-28T06:33:38.029Z,100166.16
2018-08-28T06:36:42.822Z,100165.52
2018-08-28T06:39:47.667Z,100169.44
2018-08-28T06:42:52.463Z,100169.97
2018-08-28T06:45:57.210Z,100183.56
2018-08-28T06:49:02.009Z,100173.88
2018-08-28T06:52:07.067Z,100179.61
2018-08-28T06:55:12.786Z,100175.36
2018-08-28T06:58:17.633Z,100176.39
2018-08-28T07:01:22.476Z,100175.56
2018-08-28T07:04:27.364Z,100165.52
2018-08-28T07:07:32.167Z,100165.41
2018-08-28T07:10:36.978Z,100163.87
2018-08-28T07:13:41.680Z,100167.55
2018-08-28T07:16:47.396Z,100171.81
2018-08-28T07:19:52.178Z,100170.89
2018-08-28T07:22:57.125Z,100172.29
2018-08-28T07:26:02.013Z,100176.03
2018-08-28T07:29:06.808Z,100170.83
2018-08-28T07:32:11.716Z,100171.08
2018-08-28T07:35:16.482Z,100174.30
2018-08-28T07:38:21.354Z,100174.20
2018-08-28T07:41:26.124Z,100170.95
2018-08-28T07:44:31.097Z,100165.11
2018-08-28T07:47:35.911Z,100166.27
2018-08-28T07:50:40.717Z,100163.77
2018-08-28T07:53:45.582Z,100169.79
2018-08-28T07:56:50.331Z,100159.00
2018-08-28T07:59:55.094Z,100165.98
2018-08-28T08:02:59.886Z,100166.41
2018-08-28T08:06:04.709Z,100173.44
2018-08-28T08:09:11.037Z,100160.50
2018-08-28T08:12:15.964Z,100160.29
2018-08-28T08:15:20.744Z,100166.62
2018-08-28T08:18:25.590Z,100164.03
2018-08-28T08:21:30.480Z,100165.20
2018-08-28T08:24:35.279Z,100169.08
2018-08-28T08:27:40.198Z,100166.08
2018-08-28T08:30:45.028Z,100162.52
2018-08-28T08:33:49.849Z,100161.10
2018-08-28T08:36:54.699Z,100164.38
2018-08-28T08:39:59.539Z,100156.12
2018-08-28T08:43:04.389Z,100157.40
2018-08-28T08:46:09.200Z,100163.59
2018-08-28T08:49:14.028Z,100161.89
2018-08-28T08:52:18.862Z,100155.84
2018-08-28T08:55:23.623Z,100157.48
2018-08-28T08:58:28.514Z,100157.95
2018-08-28T09:01:33.462Z,100152.84
2018-08-28T09:04:38.391Z,100149.39
2018-08-28T09:07:43.131Z,100144.30
2018-08-28T09:10:47.925Z,100147.77
2018-08-28T09:13:52.705Z,100142.31
2018-08-28T09:16:57.478Z,100141.37
2018-08-28T09:20:02.291Z,100132.61
2018-08-28T09:23:07.216Z,100133.41
2018-08-28T09:26:12.039Z,100138.53
2018-08-28T09:29:16.803Z,100131.48
2018-08-28T09:32:21.769Z,100129.34
2018-08-28T09:35:26.486Z,100133.73
2018-08-28T09:38:31.364Z,100132.13
2018-08-28T09:41:36.281Z,100134.90
2018-08-28T09:44:41.196Z,100122.07
2018-08-28T09:47:46.034Z,100120.19
2018-08-28T09:50:50.789Z,100121.64
2018-08-28T09:53:55.710Z,100114.19
2018-08-28T09:57:00.477Z,100114.34
2018-08-28T10:00:05.384Z,100116.61
2018-08-28T10:03:10.410Z,100114.75
2018-08-28T10:06:15.211Z,100115.92
2018-08-28T10:09:20.136Z,100113.41
2018-08-28T10:12:24.929Z,100112.23
2018-08-28T10:15:29.759Z,100115.34
2018-08-28T10:18:34.661Z,100110.54
2018-08-28T10:21:39.828Z,100105.66
2018-08-28T10:24:44.627Z,100109.02
2018-08-28T10:27:49.520Z,100103.36
2018-08-28T10:30:54.334Z,100100.69
2018-08-28T10:33:59.128Z,100094.53
2018-08-28T10:37:03.964Z,100094.00
2018-08-28T10:40:08.788Z,100093.13
2018-08-28T10:43:13.678Z,100098.22
2018-08-28T10:46:18.653Z,100090.66
2018-08-28T10:49:24.259Z,100089.67
2018-08-28T10:52:29.177Z,100096.41
2018-08-28T10:55:33.982Z,100092.16
2018-08-28T10:58:38.959Z,100090.94
2018-08-28T11:01:43.825Z,100089.84
2018-08-28T11:04:49.091Z,100083.09
2018-08-28T11:07:54.877Z,100084.93
2018-08-28T11:10:59.761Z,100077.33
2018-08-28T11:14:04.599Z,100073.09
2018-08-28T11:17:09.978Z,100071.36
2018-08-28T11:20:16.589Z,100071.46
2018-08-28T11:23:21.452Z,100070.70
2018-08-28T11:26:26.213Z,100066.56
2018-08-28T11:29:31.007Z,100064.25
2018-08-28T11:32:35.830Z,100066.67
2018-08-28T11:35:40.644Z,100063.98
2018-08-28T11:38:45.436Z,100057.98
2018-08-28T11:41:50.294Z,100061.02
2018-08-28T11:44:55.571Z,100050.95
2018-08-28T11:48:00.381Z,100050.11
2018-08-28T11:51:05.379Z,100043.52
2018-08-28T11:54:10.137Z,100052.03
2018-08-28T11:57:15.043Z,100044.01
2018-08-28T12:00:19.855Z,100046.63
2018-08-28T12:03:24.804Z,100044.17
2018-08-28T12:06:29.581Z,100034.28
2018-08-28T12:09:34.451Z,100036.61
2018-08-28T12:12:39.534Z,100031.59
2018-08-28T12:15:44.339Z,100021.69
2018-08-28T12:18:49.188Z,100030.52
2018-08-28T12:21:53.939Z,100030.40
2018-08-28T12:24:58.807Z,100021.61
2018-08-28T12:28:03.857Z,100009.36
2018-08-28T12:31:08.648Z,100012.17
2018-08-28T12:34:13.474Z,100003.89
2018-08-28T12:37:18.280Z,99996.95
2018-08-28T12:40:23.134Z,99996.55
2018-08-28T12:43:27.913Z,99985.03
2018-08-28T12:46:32.738Z,99983.83
2018-08-28T12:49:37.612Z,99989.66
2018-08-28T12:52:42.754Z,99983.59
2018-08-28T12:55:47.544Z,99978.70
2018-08-28T12:58:53.359Z,99969.02
2018-08-28T13:01:58.120Z,99961.16
2018-08-28T13:05:02.917Z,99949.29
2018-08-28T13:08:08.192Z,99955.39
2018-08-28T13:11:12.917Z,99956.31
2018-08-28T13:14:17.840Z,99957.71
2018-08-28T13:17:22.785Z,99954.48
2018-08-28T13:20:27.584Z,99949.07
2018-08-28T13:23:32.409Z,99951.61
2018-08-28T13:26:37.226Z,99944.71
2018-08-28T13:29:42.005Z,99942.69
2018-08-28T13:32:46.869Z,99938.12
2018-08-28T13:35:51.651Z,99934.09
2018-08-28T13:38:56.508Z,99933.23
2018-08-28T13:42:01.317Z,99927.77
2018-08-28T13:45:06.367Z,99931.16
2018-08-28T13:48:11.266Z,99926.71
2018-08-28T13:51:16.274Z,99927.76
2018-08-28T13:54:21.219Z,99926.20
2018-08-28T13:57:26.129Z,99924.22
2018-08-28T14:00:30.934Z,99924.05
2018-08-28T14:03:35.980Z,99919.89
2018-08-28T14:06:40.855Z,99922.34
2018-08-28T14:09:45.711Z,99919.80
2018-08-28T14:12:50.536Z,99913.06
2018-08-28T14:15:55.484Z,99913.53
2018-08-28T14:19:00.413Z,99909.02
2018-08-28T14:22:05.327Z,99911.88
2018-08-28T14:25:10.262Z,99910.16
2018-08-28T14:28:15.069Z,99903.78
2018-08-28T14:31:19.818Z,99906.70
2018-08-28T14:34:24.688Z,99899.25
2018-08-28T14:37:29.540Z,99896.58
2018-08-28T14:40:34.350Z,99897.88
2018-08-28T14:43:39.228Z,99900.23
2018-08-28T14:46:44.029Z,99892.05
2018-08-28T14:49:49.156Z,99888.92
2018-08-28T14:52:54.074Z,99885.13
2018-08-28T14:55:58.895Z,99884.10
2018-08-28T14:59:03.905Z,99881.58
2018-08-28T15:02:08.857Z,99879.45
2018-08-28T15:05:13.757Z,99873.48
2018-08-28T15:08:18.573Z,99873.02
2018-08-28T15:11:23.456Z,99870.09
2018-08-28T15:14:28.375Z,99859.68
2018-08-28T15:17:33.324Z,99857.86
2018-08-28T15:20:38.116Z,99861.41
2018-08-28T15:23:43.174Z,99864.39
2018-08-28T15:26:47.967Z,99863.79
2018-08-28T15:29:52.961Z,99862.34
2018-08-28T15:32:57.866Z,99864.17
2018-08-28T15:36:02.932Z,99854.18
2018-08-28T15:39:08.424Z,99860.30
2018-08-28T15:42:13.321Z,99858.28
2018-08-28T15:45:18.228Z,99858.20
2018-08-28T15:48:23.206Z,99855.33
2018-08-28T15:51:28.294Z,99845.20
2018-08-28T15:54:32.929Z,99843.27
2018-08-28T15:57:37.985Z,99847.01
2018-08-28T16:00:42.832Z,99847.62
2018-08-28T16:03:47.702Z,99846.67
2018-08-28T16:06:53.017Z,99841.92
2018-08-28T16:09:57.821Z,99838.28
2018-08-28T16:13:02.703Z,99844.11
2018-08-28T16:16:07.762Z,99842.05
2018-08-28T16:19:12.691Z,99842.45
2018-08-28T16:22:21.840Z,99846.87
2018-08-28T16:25:26.761Z,99843.66
2018-08-28T16:28:31.798Z,99840.59
2018-08-28T16:31:36.902Z,99844.36
2018-08-28T16:34:41.728Z,99834.93
2018-08-28T16:37:48.205Z,99833.75
2018-08-28T16:40:52.993Z,99828.82
2018-08-28T16:43:57.786Z,99824.78
2018-08-28T16:47:02.621Z,99827.31
2018-08-28T16:50:07.573Z,99824.73
2018-08-28T16:53:12.363Z,99820.36
2018-08-28T16:56:17.273Z,99818.49
2018-08-28T16:59:22.087Z,99818.83
2018-08-28T17:02:26.986Z,99818.13
2018-08-28T17:05:31.825Z,99819.28
2018-08-28T17:08:36.668Z,99814.31
2018-08-28T17:11:41.416Z,99825.45
2018-08-28T17:14:46.381Z,99816.75
2018-08-28T17:17:51.156Z,99818.46
2018-08-28T17:20:56.000Z,99815.74
2018-08-28T17:24:00.772Z,99816.25
2018-08-28T17:27:05.843Z,99811.74
2018-08-28T17:30:37.416Z,99815.75
2018-08-28T17:33:45.081Z,99813.86
2018-08-28T17:36:50.052Z,99804.56
2018-08-28T17:39:55.060Z,99806.06
2018-08-28T17:42:59.908Z,99812.34
2018-08-28T17:46:05.108Z,99809.11
2018-08-28T17:49:10.105Z,99808.72
2018-08-28T17:52:14.885Z,99813.16
2018-08-28T17:55:19.756Z,99820.00
2018-08-28T17:58:24.554Z,99815.15
2018-08-28T18:01:29.432Z,99817.45
2018-08-28T18:04:34.263Z,99819.14
2018-08-28T18:07:39.165Z,99821.61
2018-08-28T18:10:44.238Z,99831.48
2018-08-28T18:13:49.018Z,99834.21
2018-08-28T18:16:53.854Z,99838.84
2018-08-28T18:19:58.778Z,99838.55
2018-08-28T18:23:03.684Z,99840.66
2018-08-28T18:26:08.840Z,99846.88
2018-08-28T18:29:13.743Z,99843.00
2018-08-28T18:32:18.616Z,99848.88
2018-08-28T18:35:23.486Z,99852.38
2018-08-28T18:38:28.364Z,99854.55
2018-08-28T18:41:33.304Z,99850.91
2018-08-28T18:44:38.159Z,99854.02
2018-08-28T18:47:42.998Z,99856.22
2018-08-28T18:50:47.809Z,99858.78
2018-08-28T18:53:52.804Z,99850.30
2018-08-28T18:56:57.588Z,99849.52
2018-08-28T19:00:02.822Z,99859.29
2018-08-28T19:03:07.666Z,99860.22
2018-08-28T19:06:12.606Z,99859.64
2018-08-28T19:09:17.746Z,99854.02
2018-08-28T19:12:22.737Z,99857.98
2018-08-28T19:15:28.545Z,99852.69
2018-08-28T19:18:33.909Z,99851.56
2018-08-28T19:21:38.769Z,99854.56
2018-08-28T19:24:43.672Z,99859.43
2018-08-28T19:27:48.618Z,99852.06
2018-08-28T19:30:53.425Z,99852.27
2018-08-28T19:33:58.281Z,99856.85
2018-08-28T19:37:03.314Z,99853.43
2018-08-28T19:40:08.339Z,99857.63
2018-08-28T19:43:13.502Z,99856.07
2018-08-28T19:46:18.596Z,99855.35
2018-08-28T19:49:23.509Z,99850.42
2018-08-28T19:52:28.691Z,99850.91
2018-08-28T19:55:33.749Z,99850.66
2018-08-28T19:58:38.760Z,99848.11
2018-08-28T20:01:44.717Z,99847.48
2018-08-28T20:04:51.001Z,99846.80
2018-08-28T20:07:55.918Z,99853.88
2018-08-28T20:11:01.044Z,99856.83
2018-08-28T20:14:06.054Z,99846.03
2018-08-28T20:17:10.903Z,99845.30
2018-08-28T20:20:15.846Z,99844.15
2018-08-28T20:23:21.019Z,99846.94
2018-08-28T20:26:25.889Z,99848.45
2018-08-28T20:29:30.810Z,99846.83
2018-08-28T20:32:35.715Z,99850.75
2018-08-28T20:35:40.558Z,99851.14
2018-08-28T20:38:45.680Z,99853.73
2018-08-28T20:41:50.686Z,99855.66
2018-08-28T20:44:56.181Z,99860.03
2018-08-28T20:48:01.220Z,99855.15
2018-08-28T20:51:07.253Z,99848.95
2018-08-28T20:54:12.196Z,99842.31
2018-08-28T20:57:17.188Z,99847.73
2018-08-28T21:00:22.761Z,99851.20
2018-08-28T21:03:28.781Z,99845.27
2018-08-28T21:06:33.735Z,99846.95
2018-08-28T21:09:38.675Z,99842.18
2018-08-28T21:12:43.632Z,99843.59
2018-08-28T21:15:48.538Z,99837.87
2018-08-28T21:18:56.727Z,99831.53
2018-08-28T21:22:02.637Z,99831.75
2018-08-28T21:25:09.088Z,99833.33
2018-08-28T21:28:13.940Z,99825.92
2018-08-28T21:31:18.986Z,99822.05
2018-08-28T21:34:23.803Z,99825.63
2018-08-28T21:37:28.640Z,99824.30
2018-08-28T21:40:33.508Z,99817.53
2018-08-28T21:43:38.577Z,99818.59
2018-08-28T21:46:43.412Z,99815.39
2018-08-28T21:49:48.258Z,99809.11
2018-08-28T21:52:53.084Z,99811.75
2018-08-28T21:55:57.910Z,99803.88
2018-08-28T21:59:02.800Z,99809.22
2018-08-28T22:02:07.773Z,99807.80
2018-08-28T22:05:12.615Z,99805.55
2018-08-28T22:08:17.472Z,99806.70
2018-08-28T22:11:22.421Z,99797.16
2018-08-28T22:14:27.268Z,99798.66
2018-08-28T22:17:32.138Z,99797.87
2018-08-28T22:20:37.141Z,99798.40
2018-08-28T22:23:42.022Z,99797.05
2018-08-28T22:26:46.883Z,99789.39
2018-08-28T22:29:51.854Z,99789.84
2018-08-28T22:32:56.887Z,99788.81
2018-08-28T22:36:01.748Z,99784.31
2018-08-28T22:39:07.717Z,99788.59
2018-08-28T22:42:12.596Z,99783.19
2018-08-28T22:45:17.394Z,99780.42
2018-08-28T22:48:22.228Z,99782.97
2018-08-28T22:51:27.175Z,99775.98
2018-08-28T22:54:32.038Z,99775.92
2018-08-28T22:57:36.823Z,99773.95
2018-08-28T23:00:41.609Z,99782.23
2018-08-28T23:03:46.462Z,99780.57
2018-08-28T23:06:51.305Z,99785.28
2018-08-28T23:09:56.232Z,99792.73
2018-08-28T23:13:01.317Z,99786.58
2018-08-28T23:16:06.141Z,99778.16
2018-08-28T23:19:11.003Z,99778.31
2018-08-28T23:22:15.887Z,99773.78
2018-08-28T23:25:20.704Z,99773.07
2018-08-28T23:28:25.647Z,99772.43
2018-08-28T23:31:30.495Z,99770.90
2018-08-28T23:34:35.295Z,99767.45
2018-08-28T23:37:40.192Z,99766.12
2018-08-28T23:40:45.242Z,99762.36
2018-08-28T23:43:50.027Z,99767.15
2018-08-28T23:46:54.873Z,99772.27
2018-08-28T23:49:59.677Z,99774.92
2018-08-28T23:53:04.593Z,99773.13
2018-08-28T23:56:09.593Z,99762.77
2018-08-28T23:59:14.433Z,99772.14
